sensor_id;sensor_type;location;lat;lon;timestamp;pressure;altitude;pressure_sealevel;temperature;humidity
56142;BME280;42018;48.588;10.836;2023-07-08T00:02:18;96977.06;;;20.60;47.68
56142;BME280;42018;48.588;10.836;2023-07-08T00:05:04;96972.47;;;20.61;47.80
56142;BME280;42018;48.588;10.836;2023-07-08T00:07:49;96973.09;;;20.58;47.53
56142;BME280;42018;48.588;10.836;2023-07-08T00:10:35;96969.63;;;20.48;47.87
56142;BME280;42018;48.588;10.836;2023-07-08T00:13:20;96968.06;;;20.47;48.17
56142;BME280;42018;48.588;10.836;2023-07-08T00:16:10;96979.00;;;20.51;48.08
56142;BME280;42018;48.588;10.836;2023-07-08T00:18:56;96964.56;;;20.47;48.55
56142;BME280;42018;48.588;10.836;2023-07-08T00:21:41;96959.34;;;20.42;48.33
56142;BME280;42018;48.588;10.836;2023-07-08T00:24:26;96956.03;;;20.45;48.13
56142;BME280;42018;48.588;10.836;2023-07-08T00:27:12;96950.97;;;20.43;47.87
56142;BME280;42018;48.588;10.836;2023-07-08T00:30:00;96956.53;;;20.38;47.98
56142;BME280;42018;48.588;10.836;2023-07-08T00:32:46;96959.88;;;20.35;47.80
56142;BME280;42018;48.588;10.836;2023-07-08T00:35:34;96957.97;;;20.36;47.97
56142;BME280;42018;48.588;10.836;2023-07-08T00:38:23;96953.41;;;20.27;48.53
56142;BME280;42018;48.588;10.836;2023-07-08T00:41:21;96946.94;;;20.20;48.50
56142;BME280;42018;48.588;10.836;2023-07-08T00:44:12;96947.78;;;20.12;48.58
56142;BME280;42018;48.588;10.836;2023-07-08T00:47:04;96952.38;;;20.11;48.62
56142;BME280;42018;48.588;10.836;2023-07-08T00:49:57;96942.56;;;20.06;48.58
56142;BME280;42018;48.588;10.836;2023-07-08T00:52:45;96945.56;;;20.05;49.38
56142;BME280;42018;48.588;10.836;2023-07-08T00:55:31;96942.56;;;20.06;49.26
56142;BME280;42018;48.588;10.836;2023-07-08T00:58:19;96953.69;;;19.96;49.61
56142;BME280;42018;48.588;10.836;2023-07-08T01:01:06;96945.13;;;19.94;49.76
56142;BME280;42018;48.588;10.836;2023-07-08T01:03:55;96953.50;;;20.01;49.38
56142;BME280;42018;48.588;10.836;2023-07-08T01:06:49;96953.19;;;19.94;49.61
56142;BME280;42018;48.588;10.836;2023-07-08T01:09:44;96954.47;;;19.97;49.64
56142;BME280;42018;48.588;10.836;2023-07-08T01:12:35;96951.28;;;19.95;49.66
56142;BME280;42018;48.588;10.836;2023-07-08T01:15:25;96950.06;;;19.83;49.94
56142;BME280;42018;48.588;10.836;2023-07-08T01:18:15;96944.53;;;19.89;49.96
56142;BME280;42018;48.588;10.836;2023-07-08T01:21:33;96945.34;;;19.72;50.15
56142;BME280;42018;48.588;10.836;2023-07-08T01:24:18;96957.34;;;19.74;50.38
56142;BME280;42018;48.588;10.836;2023-07-08T01:27:07;96953.72;;;19.79;50.54
56142;BME280;42018;48.588;10.836;2023-07-08T01:29:55;96961.28;;;19.77;50.44
56142;BME280;42018;48.588;10.836;2023-07-08T01:32:45;96956.09;;;19.72;50.43
56142;BME280;42018;48.588;10.836;2023-07-08T01:35:32;96956.56;;;19.74;50.34
56142;BME280;42018;48.588;10.836;2023-07-08T01:38:24;96957.84;;;19.68;50.32
56142;BME280;42018;48.588;10.836;2023-07-08T01:41:13;96951.03;;;19.70;50.42
56142;BME280;42018;48.588;10.836;2023-07-08T01:43:58;96949.75;;;19.59;50.62
56142;BME280;42018;48.588;10.836;2023-07-08T01:46:44;96946.94;;;19.64;50.90
56142;BME280;42018;48.588;10.836;2023-07-08T01:49:30;96949.28;;;19.66;50.72
56142;BME280;42018;48.588;10.836;2023-07-08T01:52:17;96942.81;;;19.58;51.00
56142;BME280;42018;48.588;10.836;2023-07-08T01:55:03;96950.69;;;19.46;51.83
56142;BME280;42018;48.588;10.836;2023-07-08T01:57:51;96947.25;;;19.36;52.26
56142;BME280;42018;48.588;10.836;2023-07-08T02:00:37;96948.97;;;19.41;51.95
56142;BME280;42018;48.588;10.836;2023-07-08T02:03:23;96949.59;;;19.38;51.82
56142;BME280;42018;48.588;10.836;2023-07-08T02:06:08;96950.38;;;19.38;51.98
56142;BME280;42018;48.588;10.836;2023-07-08T02:08:54;96949.59;;;19.38;51.85
56142;BME280;42018;48.588;10.836;2023-07-08T02:11:43;96944.69;;;19.31;51.86
56142;BME280;42018;48.588;10.836;2023-07-08T02:14:28;96942.97;;;19.27;52.16
56142;BME280;42018;48.588;10.836;2023-07-08T02:17:14;96935.84;;;19.31;51.75
56142;BME280;42018;48.588;10.836;2023-07-08T02:20:01;96934.91;;;19.27;52.06
56142;BME280;42018;48.588;10.836;2023-07-08T02:22:47;96941.56;;;19.29;51.79
56142;BME280;42018;48.588;10.836;2023-07-08T02:25:33;96942.34;;;19.21;51.72
56142;BME280;42018;48.588;10.836;2023-07-08T02:28:19;96943.59;;;19.24;51.34
56142;BME280;42018;48.588;10.836;2023-07-08T02:31:04;96946.47;;;19.19;51.21
56142;BME280;42018;48.588;10.836;2023-07-08T02:33:49;96939.19;;;19.10;51.71
56142;BME280;42018;48.588;10.836;2023-07-08T02:36:35;96941.56;;;19.12;51.46
56142;BME280;42018;48.588;10.836;2023-07-08T02:39:22;96940.75;;;19.11;51.86
56142;BME280;42018;48.588;10.836;2023-07-08T02:42:08;96935.53;;;19.06;51.62
56142;BME280;42018;48.588;10.836;2023-07-08T02:44:53;96935.22;;;19.08;51.75
56142;BME280;42018;48.588;10.836;2023-07-08T02:47:38;96933.00;;;19.10;51.56
56142;BME280;42018;48.588;10.836;2023-07-08T02:50:24;96940.56;;;18.99;52.08
56142;BME280;42018;48.588;10.836;2023-07-08T02:53:10;96941.22;;;18.96;52.01
56142;BME280;42018;48.588;10.836;2023-07-08T02:55:55;96935.22;;;18.90;52.43
56142;BME280;42018;48.588;10.836;2023-07-08T02:58:41;96949.56;;;18.77;53.02
56142;BME280;42018;48.588;10.836;2023-07-08T03:01:26;96945.31;;;18.85;52.79
56142;BME280;42018;48.588;10.836;2023-07-08T03:04:12;96945.16;;;18.99;52.34
56142;BME280;42018;48.588;10.836;2023-07-08T03:06:58;96940.75;;;18.94;52.13
56142;BME280;42018;48.588;10.836;2023-07-08T03:09:44;96944.38;;;18.89;51.70
56142;BME280;42018;48.588;10.836;2023-07-08T03:12:29;96944.06;;;18.91;51.72
56142;BME280;42018;48.588;10.836;2023-07-08T03:15:14;96945.63;;;18.92;51.48
56142;BME280;42018;48.588;10.836;2023-07-08T03:18:00;96956.69;;;18.99;51.35
56142;BME280;42018;48.588;10.836;2023-07-08T03:20:48;96956.69;;;18.99;51.57
56142;BME280;42018;48.588;10.836;2023-07-08T03:23:33;96961.75;;;19.01;51.47
56142;BME280;42018;48.588;10.836;2023-07-08T03:26:21;96963.47;;;18.88;51.62
56142;BME280;42018;48.588;10.836;2023-07-08T03:29:13;96955.09;;;18.81;51.59
56142;BME280;42018;48.588;10.836;2023-07-08T03:31:59;96965.81;;;18.72;51.95
56142;BME280;42018;48.588;10.836;2023-07-08T03:34:44;96969.75;;;18.75;51.77
56142;BME280;42018;48.588;10.836;2023-07-08T03:37:30;96969.28;;;18.73;51.92
56142;BME280;42018;48.588;10.836;2023-07-08T03:40:15;96985.66;;;18.62;52.58
56142;BME280;42018;48.588;10.836;2023-07-08T03:43:01;96988.38;;;18.71;52.47
56142;BME280;42018;48.588;10.836;2023-07-08T03:45:46;96980.69;;;18.87;52.19
56142;BME280;42018;48.588;10.836;2023-07-08T03:48:32;96974.66;;;18.73;52.55
56142;BME280;42018;48.588;10.836;2023-07-08T03:51:26;96988.84;;;18.73;52.31
56142;BME280;42018;48.588;10.836;2023-07-08T03:54:13;96999.31;;;18.83;52.39
56142;BME280;42018;48.588;10.836;2023-07-08T03:56:59;97000.25;;;18.79;52.62
56142;BME280;42018;48.588;10.836;2023-07-08T03:59:44;97010.53;;;18.85;52.22
56142;BME280;42018;48.588;10.836;2023-07-08T04:02:29;97021.91;;;18.82;52.30
56142;BME280;42018;48.588;10.836;2023-07-08T04:05:17;97021.56;;;18.75;53.12
56142;BME280;42018;48.588;10.836;2023-07-08T04:08:03;97046.69;;;18.57;53.33
56142;BME280;42018;48.588;10.836;2023-07-08T04:10:48;97060.06;;;18.39;53.88
56142;BME280;42018;48.588;10.836;2023-07-08T04:13:34;97072.75;;;18.03;53.38
56142;BME280;42018;48.588;10.836;2023-07-08T04:16:25;97065.84;;;18.33;52.81
56142;BME280;42018;48.588;10.836;2023-07-08T04:19:14;97050.53;;;18.64;52.36
56142;BME280;42018;48.588;10.836;2023-07-08T04:22:01;97051.66;;;19.03;51.79
56142;BME280;42018;48.588;10.836;2023-07-08T04:24:46;97051.84;;;19.24;52.07
56142;BME280;42018;48.588;10.836;2023-07-08T04:27:32;97045.06;;;19.53;49.96
56142;BME280;42018;48.588;10.836;2023-07-08T04:30:22;97042.09;;;19.54;49.80
56142;BME280;42018;48.588;10.836;2023-07-08T04:33:11;97037.69;;;19.67;50.58
56142;BME280;42018;48.588;10.836;2023-07-08T04:35:57;97025.53;;;19.78;49.77
56142;BME280;42018;48.588;10.836;2023-07-08T04:38:42;97015.38;;;19.84;48.87
56142;BME280;42018;48.588;10.836;2023-07-08T04:41:31;97015.72;;;19.82;48.71
56142;BME280;42018;48.588;10.836;2023-07-08T04:44:17;97016.59;;;20.13;48.48
56142;BME280;42018;48.588;10.836;2023-07-08T04:47:03;97013.56;;;20.23;49.85
56142;BME280;42018;48.588;10.836;2023-07-08T04:49:49;97004.25;;;20.12;52.47
56142;BME280;42018;48.588;10.836;2023-07-08T04:52:34;97000.69;;;20.37;52.24
56142;BME280;42018;48.588;10.836;2023-07-08T04:55:22;97011.94;;;20.39;52.24
56142;BME280;42018;48.588;10.836;2023-07-08T04:58:07;97012.09;;;20.34;51.60
56142;BME280;42018;48.588;10.836;2023-07-08T05:00:53;97009.88;;;20.36;51.11
56142;BME280;42018;48.588;10.836;2023-07-08T05:03:38;96996.75;;;20.34;51.60
56142;BME280;42018;48.588;10.836;2023-07-08T05:06:23;96982.28;;;20.48;51.03
56142;BME280;42018;48.588;10.836;2023-07-08T05:09:09;96983.72;;;20.54;49.90
56142;BME280;42018;48.588;10.836;2023-07-08T05:11:55;96977.41;;;20.41;50.64
56142;BME280;42018;48.588;10.836;2023-07-08T05:14:40;96976.59;;;20.49;50.39
56142;BME280;42018;48.588;10.836;2023-07-08T05:17:27;96979.91;;;20.55;49.07
56142;BME280;42018;48.588;10.836;2023-07-08T05:20:14;96981.13;;;20.28;50.48
56142;BME280;42018;48.588;10.836;2023-07-08T05:23:00;96968.41;;;20.37;51.00
56142;BME280;42018;48.588;10.836;2023-07-08T05:25:45;96969.34;;;20.41;50.45
56142;BME280;42018;48.588;10.836;2023-07-08T05:28:31;96972.72;;;20.29;50.24
56142;BME280;42018;48.588;10.836;2023-07-08T05:31:17;96983.75;;;20.37;51.16
56142;BME280;42018;48.588;10.836;2023-07-08T05:34:02;97001.97;;;20.31;51.67
56142;BME280;42018;48.588;10.836;2023-07-08T05:36:47;97018.34;;;20.17;51.29
56142;BME280;42018;48.588;10.836;2023-07-08T05:39:33;97010.72;;;20.28;51.04
56142;BME280;42018;48.588;10.836;2023-07-08T05:42:20;97008.47;;;20.39;50.40
56142;BME280;42018;48.588;10.836;2023-07-08T05:45:06;97006.03;;;20.54;50.35
56142;BME280;42018;48.588;10.836;2023-07-08T05:47:55;96997.41;;;20.70;50.01
56142;BME280;42018;48.588;10.836;2023-07-08T05:50:40;96987.22;;;20.84;49.53
56142;BME280;42018;48.588;10.836;2023-07-08T05:53:26;96981.81;;;20.84;49.06
56142;BME280;42018;48.588;10.836;2023-07-08T05:56:12;96986.56;;;20.87;49.09
56142;BME280;42018;48.588;10.836;2023-07-08T05:58:57;97001.94;;;20.87;49.43
56142;BME280;42018;48.588;10.836;2023-07-08T06:01:43;96994.22;;;21.06;48.28
56142;BME280;42018;48.588;10.836;2023-07-08T06:04:28;96987.34;;;20.88;48.15
56142;BME280;42018;48.588;10.836;2023-07-08T06:07:14;96977.41;;;20.79;48.68
56142;BME280;42018;48.588;10.836;2023-07-08T06:09:59;96981.91;;;20.96;49.27
56142;BME280;42018;48.588;10.836;2023-07-08T06:12:44;96995.66;;;21.03;47.62
56142;BME280;42018;48.588;10.836;2023-07-08T06:15:30;97000.53;;;21.10;47.26
56142;BME280;42018;48.588;10.836;2023-07-08T06:18:15;97001.13;;;21.16;47.35
56142;BME280;42018;48.588;10.836;2023-07-08T06:21:01;96999.25;;;21.37;47.59
56142;BME280;42018;48.588;10.836;2023-07-08T06:23:46;97002.81;;;21.50;47.38
56142;BME280;42018;48.588;10.836;2023-07-08T06:26:32;97001.56;;;21.47;45.65
56142;BME280;42018;48.588;10.836;2023-07-08T06:29:17;97003.56;;;21.38;45.81
56142;BME280;42018;48.588;10.836;2023-07-08T06:32:05;97000.44;;;21.48;45.99
56142;BME280;42018;48.588;10.836;2023-07-08T06:34:50;97002.41;;;21.60;45.92
56142;BME280;42018;48.588;10.836;2023-07-08T06:37:36;97003.47;;;21.68;45.97
56142;BME280;42018;48.588;10.836;2023-07-08T06:40:21;97000.81;;;21.59;46.54
56142;BME280;42018;48.588;10.836;2023-07-08T06:43:06;97000.53;;;21.73;46.98
56142;BME280;42018;48.588;10.836;2023-07-08T06:45:52;97006.84;;;21.77;46.17
56142;BME280;42018;48.588;10.836;2023-07-08T06:48:37;97010.53;;;21.93;46.87
56142;BME280;42018;48.588;10.836;2023-07-08T06:51:22;97006.94;;;22.02;46.41
56142;BME280;42018;48.588;10.836;2023-07-08T06:54:08;97011.28;;;22.15;46.47
56142;BME280;42018;48.588;10.836;2023-07-08T06:56:56;97003.25;;;22.06;45.70
56142;BME280;42018;48.588;10.836;2023-07-08T06:59:41;97000.56;;;22.06;45.95
56142;BME280;42018;48.588;10.836;2023-07-08T07:02:27;96999.16;;;22.21;45.92
56142;BME280;42018;48.588;10.836;2023-07-08T07:05:12;97002.88;;;22.16;45.43
56142;BME280;42018;48.588;10.836;2023-07-08T07:07:58;97016.84;;;22.31;45.16
56142;BME280;42018;48.588;10.836;2023-07-08T07:10:43;97034.03;;;22.26;46.25
56142;BME280;42018;48.588;10.836;2023-07-08T07:13:28;97064.72;;;22.00;46.44
56142;BME280;42018;48.588;10.836;2023-07-08T07:16:14;97070.00;;;21.97;47.33
56142;BME280;42018;48.588;10.836;2023-07-08T07:19:00;97068.81;;;22.28;47.17
56142;BME280;42018;48.588;10.836;2023-07-08T07:21:45;97071.22;;;22.41;47.10
56142;BME280;42018;48.588;10.836;2023-07-08T07:24:30;97081.53;;;22.39;47.85
56142;BME280;42018;48.588;10.836;2023-07-08T07:27:16;97083.56;;;22.09;48.36
56142;BME280;42018;48.588;10.836;2023-07-08T07:30:01;97073.84;;;22.17;47.58
56142;BME280;42018;48.588;10.836;2023-07-08T07:32:47;97085.06;;;21.98;47.85
56142;BME280;42018;48.588;10.836;2023-07-08T07:35:32;97082.44;;;21.89;47.77
56142;BME280;42018;48.588;10.836;2023-07-08T07:38:18;97079.22;;;21.96;47.81
56142;BME280;42018;48.588;10.836;2023-07-08T07:41:03;97085.03;;;21.86;48.50
56142;BME280;42018;48.588;10.836;2023-07-08T07:43:51;97086.91;;;22.06;49.23
56142;BME280;42018;48.588;10.836;2023-07-08T07:46:37;97086.19;;;22.18;48.92
56142;BME280;42018;48.588;10.836;2023-07-08T07:49:22;97096.03;;;22.35;48.67
56142;BME280;42018;48.588;10.836;2023-07-08T07:52:08;97097.84;;;22.31;47.41
56142;BME280;42018;48.588;10.836;2023-07-08T07:54:55;97103.66;;;22.20;47.79
56142;BME280;42018;48.588;10.836;2023-07-08T07:57:41;97090.59;;;22.02;47.37
56142;BME280;42018;48.588;10.836;2023-07-08T08:00:31;97086.69;;;22.11;49.68
56142;BME280;42018;48.588;10.836;2023-07-08T08:03:19;97085.53;;;22.21;49.60
56142;BME280;42018;48.588;10.836;2023-07-08T08:06:05;97085.03;;;22.40;48.00
56142;BME280;42018;48.588;10.836;2023-07-08T08:08:50;97087.00;;;22.64;47.02
56142;BME280;42018;48.588;10.836;2023-07-08T08:11:36;97067.53;;;22.83;46.12
56142;BME280;42018;48.588;10.836;2023-07-08T08:14:22;97073.34;;;23.06;45.98
56142;BME280;42018;48.588;10.836;2023-07-08T08:17:07;97073.66;;;23.04;45.63
56142;BME280;42018;48.588;10.836;2023-07-08T08:19:58;97077.56;;;22.82;45.83
56142;BME280;42018;48.588;10.836;2023-07-08T08:22:43;97083.97;;;22.90;46.16
56142;BME280;42018;48.588;10.836;2023-07-08T08:25:29;97088.88;;;23.09;45.33
56142;BME280;42018;48.588;10.836;2023-07-08T08:28:14;97095.84;;;23.22;45.86
56142;BME280;42018;48.588;10.836;2023-07-08T08:31:00;97098.53;;;23.22;45.73
56142;BME280;42018;48.588;10.836;2023-07-08T08:33:48;97098.66;;;23.38;45.74
56142;BME280;42018;48.588;10.836;2023-07-08T08:36:33;97097.09;;;23.12;46.02
56142;BME280;42018;48.588;10.836;2023-07-08T08:39:18;97094.72;;;23.23;45.33
56142;BME280;42018;48.588;10.836;2023-07-08T08:42:04;97101.03;;;23.27;45.58
56142;BME280;42018;48.588;10.836;2023-07-08T08:44:52;97098.53;;;23.22;45.76
56142;BME280;42018;48.588;10.836;2023-07-08T08:50:29;97102.13;;;23.26;47.54
56142;BME280;42018;48.588;10.836;2023-07-08T08:53:17;97105.53;;;23.35;46.63
56142;BME280;42018;48.588;10.836;2023-07-08T08:56:18;97111.16;;;23.42;47.18
56142;BME280;42018;48.588;10.836;2023-07-08T09:05:27;97096.13;;;23.82;44.82
56142;BME280;42018;48.588;10.836;2023-07-08T09:08:16;97104.72;;;23.59;45.16
56142;BME280;42018;48.588;10.836;2023-07-08T09:11:42;97118.00;;;23.64;45.97
56142;BME280;42018;48.588;10.836;2023-07-08T09:14:33;97112.63;;;23.40;45.13
56142;BME280;42018;48.588;10.836;2023-07-08T09:17:34;97104.16;;;23.54;46.34
56142;BME280;42018;48.588;10.836;2023-07-08T09:20:25;97102.53;;;23.89;44.99
56142;BME280;42018;48.588;10.836;2023-07-08T09:23:27;97102.88;;;23.88;45.14
56142;BME280;42018;48.588;10.836;2023-07-08T09:26:19;97104.94;;;24.07;45.80
56142;BME280;42018;48.588;10.836;2023-07-08T09:29:09;97102.22;;;24.19;45.19
56142;BME280;42018;48.588;10.836;2023-07-08T09:31:55;97100.09;;;24.12;45.45
56142;BME280;42018;48.588;10.836;2023-07-08T09:34:55;97095.28;;;24.22;44.21
56142;BME280;42018;48.588;10.836;2023-07-08T09:37:46;97101.78;;;24.33;44.73
56142;BME280;42018;48.588;10.836;2023-07-08T09:40:33;97102.56;;;24.46;43.95
56142;BME280;42018;48.588;10.836;2023-07-08T09:43:33;97098.00;;;24.50;43.87
56142;BME280;42018;48.588;10.836;2023-07-08T09:46:22;97114.63;;;24.36;43.80
56142;BME280;42018;48.588;10.836;2023-07-08T09:49:18;97115.94;;;24.54;44.41
56142;BME280;42018;48.588;10.836;2023-07-08T09:52:04;97121.72;;;24.69;43.83
56142;BME280;42018;48.588;10.836;2023-07-08T09:54:49;97121.97;;;24.35;43.97
56142;BME280;42018;48.588;10.836;2023-07-08T09:57:35;97136.78;;;24.82;43.60
56142;BME280;42018;48.588;10.836;2023-07-08T10:00:29;97130.00;;;24.60;43.58
56142;BME280;42018;48.588;10.836;2023-07-08T10:03:28;97124.44;;;24.69;42.43
56142;BME280;42018;48.588;10.836;2023-07-08T10:06:25;97121.41;;;24.42;43.77
56142;BME280;42018;48.588;10.836;2023-07-08T10:09:14;97124.19;;;24.74;43.28
56142;BME280;42018;48.588;10.836;2023-07-08T10:12:06;97133.72;;;24.83;41.91
56142;BME280;42018;48.588;10.836;2023-07-08T10:15:06;97134.00;;;25.10;40.86
56142;BME280;42018;48.588;10.836;2023-07-08T10:17:57;97128.25;;;25.12;41.13
56142;BME280;42018;48.588;10.836;2023-07-08T10:23:57;97125.09;;;25.25;42.02
56142;BME280;42018;48.588;10.836;2023-07-08T10:26:54;97128.84;;;25.37;41.34
56142;BME280;42018;48.588;10.836;2023-07-08T10:36:23;97114.63;;;25.94;38.70
56142;BME280;42018;48.588;10.836;2023-07-08T10:49:19;97103.03;;;27.25;35.37
56142;BME280;42018;48.588;10.836;2023-07-08T10:52:37;97111.72;;;27.60;35.21
56142;BME280;42018;48.588;10.836;2023-07-08T10:58:28;97113.19;;;27.28;36.48
56142;BME280;42018;48.588;10.836;2023-07-08T11:04:36;97113.06;;;28.00;34.79
56142;BME280;42018;48.588;10.836;2023-07-08T11:07:30;97109.94;;;28.32;34.23
56142;BME280;42018;48.588;10.836;2023-07-08T11:10:41;97107.63;;;28.68;33.19
56142;BME280;42018;48.588;10.836;2023-07-08T11:13:35;97101.19;;;28.90;34.07
56142;BME280;42018;48.588;10.836;2023-07-08T11:16:35;97102.81;;;28.24;35.45
56142;BME280;42018;48.588;10.836;2023-07-08T11:19:28;97099.41;;;28.30;35.17
56142;BME280;42018;48.588;10.836;2023-07-08T11:22:16;97096.63;;;28.27;35.46
56142;BME280;42018;48.588;10.836;2023-07-08T11:25:03;97093.44;;;28.21;36.04
56142;BME280;42018;48.588;10.836;2023-07-08T11:27:55;97094.72;;;28.31;35.58
56142;BME280;42018;48.588;10.836;2023-07-08T11:30:41;97099.47;;;28.37;35.20
56142;BME280;42018;48.588;10.836;2023-07-08T11:33:28;97096.25;;;28.25;36.12
56142;BME280;42018;48.588;10.836;2023-07-08T11:36:16;97088.53;;;28.68;36.61
56142;BME280;42018;48.588;10.836;2023-07-08T11:39:26;97087.50;;;28.83;35.60
56142;BME280;42018;48.588;10.836;2023-07-08T11:45:08;97086.63;;;28.72;36.45
56142;BME280;42018;48.588;10.836;2023-07-08T11:48:05;97088.69;;;28.85;35.64
56142;BME280;42018;48.588;10.836;2023-07-08T11:50:52;97081.84;;;29.06;36.47
56142;BME280;42018;48.588;10.836;2023-07-08T11:53:48;97083.03;;;29.05;33.03
56142;BME280;42018;48.588;10.836;2023-07-08T11:56:59;97077.44;;;29.39;33.83
56142;BME280;42018;48.588;10.836;2023-07-08T11:59:46;97073.03;;;29.89;31.99
56142;BME280;42018;48.588;10.836;2023-07-08T12:02:48;97075.16;;;30.39;32.99
56142;BME280;42018;48.588;10.836;2023-07-08T12:05:36;97067.41;;;30.84;32.02
56142;BME280;42018;48.588;10.836;2023-07-08T12:08:33;97064.66;;;30.73;31.22
56142;BME280;42018;48.588;10.836;2023-07-08T12:11:25;97060.41;;;30.90;30.47
56142;BME280;42018;48.588;10.836;2023-07-08T12:14:12;97064.31;;;30.85;30.17
56142;BME280;42018;48.588;10.836;2023-07-08T12:16:59;97056.41;;;31.52;30.75
56142;BME280;42018;48.588;10.836;2023-07-08T12:19:46;97062.25;;;31.71;31.92
56142;BME280;42018;48.588;10.836;2023-07-08T12:22:34;97055.63;;;31.62;30.00
56142;BME280;42018;48.588;10.836;2023-07-08T12:25:32;97052.75;;;31.98;31.30
56142;BME280;42018;48.588;10.836;2023-07-08T12:28:21;97053.44;;;32.16;30.17
56142;BME280;42018;48.588;10.836;2023-07-08T12:33:59;97046.25;;;31.63;28.91
56142;BME280;42018;48.588;10.836;2023-07-08T12:36:45;97044.72;;;31.26;29.69
56142;BME280;42018;48.588;10.836;2023-07-08T12:39:33;97049.03;;;31.02;30.53
56142;BME280;42018;48.588;10.836;2023-07-08T12:42:20;97047.38;;;31.69;30.63
56142;BME280;42018;48.588;10.836;2023-07-08T12:45:24;97049.34;;;31.61;29.66
56142;BME280;42018;48.588;10.836;2023-07-08T12:48:10;97048.50;;;31.82;29.09
56142;BME280;42018;48.588;10.836;2023-07-08T12:50:56;97054.41;;;31.74;29.34
56142;BME280;42018;48.588;10.836;2023-07-08T12:53:42;97046.41;;;32.18;29.46
56142;BME280;42018;48.588;10.836;2023-07-08T12:56:28;97043.97;;;32.31;28.62
56142;BME280;42018;48.588;10.836;2023-07-08T12:59:18;97039.25;;;32.35;28.23
56142;BME280;42018;48.588;10.836;2023-07-08T13:02:07;97051.91;;;32.15;28.16
56142;BME280;42018;48.588;10.836;2023-07-08T13:04:59;97049.09;;;32.26;27.35
56142;BME280;42018;48.588;10.836;2023-07-08T13:07:46;97041.06;;;31.90;26.79
56142;BME280;42018;48.588;10.836;2023-07-08T13:10:33;97035.03;;;32.79;26.93
56142;BME280;42018;48.588;10.836;2023-07-08T13:13:44;97036.28;;;33.57;25.52
56142;BME280;42018;48.588;10.836;2023-07-08T13:16:33;97042.22;;;31.85;28.49
56142;BME280;42018;48.588;10.836;2023-07-08T13:19:20;97041.75;;;32.08;29.05
56142;BME280;42018;48.588;10.836;2023-07-08T13:22:06;97045.28;;;32.05;28.03
56142;BME280;42018;48.588;10.836;2023-07-08T13:25:02;97043.16;;;31.29;28.04
56142;BME280;42018;48.588;10.836;2023-07-08T13:27:56;97047.50;;;30.76;29.50
56142;BME280;42018;48.588;10.836;2023-07-08T13:30:57;97048.59;;;31.50;28.56
56142;BME280;42018;48.588;10.836;2023-07-08T13:33:47;97048.22;;;31.44;28.73
56142;BME280;42018;48.588;10.836;2023-07-08T13:36:36;97039.09;;;31.83;27.98
56142;BME280;42018;48.588;10.836;2023-07-08T13:39:31;97042.50;;;32.12;28.17
56142;BME280;42018;48.588;10.836;2023-07-08T13:42:17;97043.88;;;32.53;27.16
56142;BME280;42018;48.588;10.836;2023-07-08T13:45:03;97044.06;;;32.17;26.25
56142;BME280;42018;48.588;10.836;2023-07-08T13:48:25;97043.31;;;32.13;27.11
56142;BME280;42018;48.588;10.836;2023-07-08T13:51:18;97031.44;;;32.30;26.97
56142;BME280;42018;48.588;10.836;2023-07-08T13:54:13;97039.63;;;32.45;27.00
56142;BME280;42018;48.588;10.836;2023-07-08T13:57:01;97039.63;;;32.34;27.02
56142;BME280;42018;48.588;10.836;2023-07-08T13:59:48;97037.25;;;32.47;25.93
56142;BME280;42018;48.588;10.836;2023-07-08T14:02:33;97030.09;;;32.60;26.45
56142;BME280;42018;48.588;10.836;2023-07-08T14:05:19;97027.88;;;32.96;26.88
56142;BME280;42018;48.588;10.836;2023-07-08T14:08:12;97028.94;;;33.09;26.08
56142;BME280;42018;48.588;10.836;2023-07-08T14:10:58;97018.84;;;32.92;27.61
56142;BME280;42018;48.588;10.836;2023-07-08T14:13:43;97016.59;;;33.25;27.78
56142;BME280;42018;48.588;10.836;2023-07-08T14:16:30;97024.00;;;32.86;26.47
56142;BME280;42018;48.588;10.836;2023-07-08T14:19:26;97009.56;;;32.79;27.24
56142;BME280;42018;48.588;10.836;2023-07-08T14:25:07;97015.03;;;33.27;28.16
56142;BME280;42018;48.588;10.836;2023-07-08T14:27:53;97018.19;;;33.22;27.25
56142;BME280;42018;48.588;10.836;2023-07-08T14:30:45;97015.75;;;32.86;27.00
56142;BME280;42018;48.588;10.836;2023-07-08T14:33:32;97002.75;;;32.49;27.90
56142;BME280;42018;48.588;10.836;2023-07-08T14:36:17;97007.31;;;32.66;27.57
56142;BME280;42018;48.588;10.836;2023-07-08T14:39:17;97000.84;;;32.42;27.91
56142;BME280;42018;48.588;10.836;2023-07-08T14:42:05;97005.84;;;31.85;28.73
56142;BME280;42018;48.588;10.836;2023-07-08T14:44:50;97003.75;;;32.10;26.50
56142;BME280;42018;48.588;10.836;2023-07-08T14:47:37;97005.00;;;32.02;27.13
56142;BME280;42018;48.588;10.836;2023-07-08T14:50:23;97005.72;;;32.10;27.28
56142;BME280;42018;48.588;10.836;2023-07-08T14:53:13;96992.56;;;32.50;27.35
56142;BME280;42018;48.588;10.836;2023-07-08T14:56:01;97002.78;;;31.61;27.65
56142;BME280;42018;48.588;10.836;2023-07-08T14:58:50;97007.06;;;31.66;27.94
56142;BME280;42018;48.588;10.836;2023-07-08T15:01:36;97007.00;;;31.80;27.87
56142;BME280;42018;48.588;10.836;2023-07-08T15:04:22;97002.31;;;31.88;27.77
56142;BME280;42018;48.588;10.836;2023-07-08T15:07:08;96995.97;;;31.98;26.94
56142;BME280;42018;48.588;10.836;2023-07-08T15:09:53;97012.63;;;31.30;27.92
56142;BME280;42018;48.588;10.836;2023-07-08T15:12:39;97000.16;;;31.18;28.30
56142;BME280;42018;48.588;10.836;2023-07-08T15:15:32;96997.38;;;31.40;27.92
56142;BME280;42018;48.588;10.836;2023-07-08T15:18:18;96999.63;;;31.70;27.91
56142;BME280;42018;48.588;10.836;2023-07-08T15:21:11;96992.94;;;31.78;27.39
56142;BME280;42018;48.588;10.836;2023-07-08T15:23:57;96990.53;;;31.84;26.96
56142;BME280;42018;48.588;10.836;2023-07-08T15:26:45;96988.00;;;31.37;26.50